Time;durP1;ratioP1;P1;durP2;ratioP2;P2;SDS_P1;SDS_P2;PMS_P1;PMS_P2;Temp;Humidity;BMP_temperature;BMP_pressure;BME280_temperature;BME280_humidity;BME280_pressure;Samples;Min_cycle;Max_cycle;Signal;HPM_P1;HPM_P2
2021/09/24 00:01:15;;;;;;;7.65;6.85;;;;;;;7.98;83.81;99558.34;1673267;84;21068;-70
2021/09/24 00:03:41;;;;;;;10.60;7.30;;;;;;;7.99;83.71;99548.05;1656693;85;21277;-69
2021/09/24 00:06:08;;;;;;;9.93;7.97;;;;;;;7.99;83.78;99546.73;1679613;84;21083;-69
2021/09/24 00:08:34;;;;;;;9.03;7.17;;;;;;;7.98;84.19;99531.80;1682947;84;21066;-69
2021/09/24 00:11:00;;;;;;;9.40;7.30;;;;;;;8.01;84.06;99523.98;1658086;84;21449;-68
2021/09/24 00:13:26;;;;;;;11.70;8.73;;;;;;;8.01;84.15;99518.67;1664217;85;22108;-68
2021/09/24 00:15:54;;;;;;;12.90;8.30;;;;;;;7.96;84.29;99499.33;1667343;85;21098;-67
2021/09/24 00:18:21;;;;;;;11.13;8.67;;;;;;;7.96;84.28;99490.05;1656331;84;21107;-69
2021/09/24 00:20:47;;;;;;;7.83;7.10;;;;;;;7.95;84.39;99488.42;1660791;85;21119;-70
2021/09/24 00:23:16;;;;;;;9.63;7.97;;;;;;;7.96;84.45;99494.02;1651769;85;21754;-69
2021/09/24 00:25:46;;;;;;;8.77;7.77;;;;;;;7.96;84.65;99501.17;1669785;85;21083;-69
2021/09/24 00:28:14;;;;;;;7.50;6.80;;;;;;;7.96;84.84;99495.34;1650742;85;22107;-69
2021/09/24 00:30:42;;;;;;;10.70;7.50;;;;;;;7.97;84.74;99482.41;1642222;85;21530;-69
2021/09/24 00:33:08;;;;;;;9.13;7.25;;;;;;;7.98;85.00;99473.42;1647274;85;21093;-67
2021/09/24 00:35:34;;;;;;;8.80;6.45;;;;;;;8.02;85.00;99486.31;1668274;85;21609;-69
2021/09/24 00:38:00;;;;;;;9.48;7.15;;;;;;;8.04;85.04;99486.42;1667750;85;21171;-69
2021/09/24 00:40:26;;;;;;;11.60;7.75;;;;;;;8.05;85.08;99481.45;1668359;84;21022;-70
2021/09/24 00:42:53;;;;;;;9.63;7.70;;;;;;;8.10;85.00;99462.27;1683100;84;21107;-69
2021/09/24 00:45:19;;;;;;;8.15;7.25;;;;;;;8.10;85.09;99446.34;1679861;84;21023;-69
2021/09/24 00:47:46;;;;;;;8.28;7.33;;;;;;;8.12;84.93;99456.29;1664985;85;21098;-70
2021/09/24 00:50:13;;;;;;;8.07;7.37;;;;;;;8.13;85.04;99453.94;1668489;85;21639;-70
2021/09/24 00:52:40;;;;;;;8.05;7.25;;;;;;;8.16;85.05;99450.39;1659439;84;21060;-69
2021/09/24 00:55:08;;;;;;;7.85;7.05;;;;;;;8.18;84.94;99441.72;1659830;85;21045;-69
2021/09/24 00:57:34;;;;;;;13.43;8.07;;;;;;;8.19;85.10;99437.22;1631609;86;21029;-70
2021/09/24 01:00:05;;;;;;;7.87;7.07;;;;;;;8.18;85.42;99436.92;1627664;86;21165;-70
2021/09/24 01:02:31;;;;;;;7.73;6.93;;;;;;;8.21;85.42;99430.39;1641176;86;21520;-70
2021/09/24 01:04:57;;;;;;;;;;;;;;;8.23;85.69;99417.75;1643559;86;21655;-70
2021/09/24 01:07:24;;;;;;;8.97;8.07;;;;;;;8.24;85.75;99405.61;1639739;86;20203;-69
2021/09/24 01:09:52;;;;;;;8.50;7.37;;;;;;;8.19;86.17;99408.86;1609045;87;21098;-70
2021/09/24 01:12:21;;;;;;;9.10;8.23;;;;;;;8.22;86.26;99408.16;1639783;86;21045;-70
2021/09/24 01:15:01;;;;;;;8.63;7.63;;;;;;;8.23;86.30;99403.14;1640479;86;21030;-70
2021/09/24 01:17:28;;;;;;;8.73;7.83;;;;;;;8.27;86.45;99404.38;1641195;86;21518;-69
2021/09/24 01:19:54;;;;;;;9.33;7.70;;;;;;;8.27;86.48;99402.57;1640902;86;21081;-69
2021/09/24 01:22:21;;;;;;;8.83;8.03;;;;;;;8.32;86.52;99401.45;1644454;86;21137;-70
2021/09/24 01:24:47;;;;;;;10.82;8.85;;;;;;;8.35;86.38;99395.77;1641632;86;21688;-68
2021/09/24 01:27:15;;;;;;;9.25;7.90;;;;;;;8.38;86.31;99389.23;1638323;87;21074;-67
2021/09/24 01:29:41;;;;;;;9.40;7.73;;;;;;;8.41;86.41;99382.72;1646548;86;21072;-68
2021/09/24 01:32:08;;;;;;;10.58;7.85;;;;;;;8.41;86.45;99376.08;1657937;85;21890;-70
2021/09/24 01:34:34;;;;;;;9.40;8.33;;;;;;;8.45;86.50;99378.68;1635562;86;21093;-69
2021/09/24 01:37:00;;;;;;;;;;;;;;;8.45;86.71;99362.74;1636126;86;21278;-68
2021/09/24 01:39:27;;;;;;;10.23;8.63;;;;;;;8.49;86.59;99356.02;1655320;86;20185;-68
2021/09/24 01:41:54;;;;;;;9.33;8.10;;;;;;;8.47;86.63;99350.08;1672062;85;21023;-67
2021/09/24 01:44:20;;;;;;;9.85;8.85;;;;;;;8.47;86.89;99348.23;1656275;85;21178;-67
2021/09/24 01:46:47;;;;;;;10.03;8.38;;;;;;;8.49;86.97;99344.87;1646142;85;21497;-68
2021/09/24 01:49:15;;;;;;;8.83;7.93;;;;;;;8.50;87.24;99344.39;1645153;85;21139;-68
2021/09/24 01:51:45;;;;;;;13.90;9.60;;;;;;;8.51;87.27;99332.73;1649011;85;21102;-68
2021/09/24 01:54:14;;;;;;;9.23;8.27;;;;;;;8.52;87.46;99333.86;1663961;85;21003;-68
2021/09/24 01:56:41;;;;;;;10.30;9.13;;;;;;;8.53;87.68;99328.03;1661456;85;21656;-68
2021/09/24 01:59:08;;;;;;;9.97;8.97;;;;;;;8.52;87.92;99317.92;1659055;85;21109;-68
2021/09/24 02:01:34;;;;;;;9.97;8.60;;;;;;;8.53;88.13;99309.44;1662753;85;20985;-69
2021/09/24 02:04:02;;;;;;;;;;;;;;;8.55;88.26;99309.57;1662830;84;21140;-69
2021/09/24 02:06:31;;;;;;;10.57;8.60;;;;;;;8.58;88.14;99300.37;1632546;86;20142;-70
2021/09/24 02:08:57;;;;;;;10.50;8.47;;;;;;;8.58;88.35;99300.37;1648879;85;21179;-70
2021/09/24 02:11:24;;;;;;;11.83;9.40;;;;;;;8.62;88.46;99297.62;1653787;86;20975;-68
2021/09/24 02:13:52;;;;;;;10.57;9.53;;;;;;;8.64;88.43;99295.58;1633489;86;21050;-67
2021/09/24 02:16:20;;;;;;;13.00;9.70;;;;;;;8.69;88.45;99288.34;1634208;86;22480;-68
2021/09/24 02:18:46;;;;;;;;;;;;;;;8.71;88.40;99284.45;1645033;86;21109;-68
2021/09/24 02:21:12;;;;;;;9.80;8.80;;;;;;;8.75;88.40;99276.39;1634677;86;20237;-68
2021/09/24 02:23:38;;;;;;;10.20;9.20;;;;;;;8.71;88.69;99279.14;1665205;84;21026;-68
2021/09/24 02:26:06;;;;;;;8.87;8.03;;;;;;;8.74;88.67;99268.64;1678889;84;21520;-68
2021/09/24 02:28:33;;;;;;;11.70;9.40;;;;;;;8.76;88.67;99255.97;1708277;82;21037;-68
2021/09/24 02:31:00;;;;;;;10.67;9.43;;;;;;;8.76;88.83;99258.62;1706296;82;21021;-69
2021/09/24 02:33:28;;;;;;;11.40;9.07;;;;;;;8.79;88.81;99252.08;1700360;82;22357;-64
2021/09/24 02:35:54;;;;;;;11.10;8.88;;;;;;;8.81;88.90;99247.37;1708443;82;21073;-65
2021/09/24 02:38:20;;;;;;;10.20;9.23;;;;;;;8.82;89.02;99237.07;1708164;82;21038;-65
2021/09/24 02:40:46;;;;;;;9.43;8.53;;;;;;;8.84;89.11;99231.03;1717502;82;21056;-65
2021/09/24 02:43:12;;;;;;;10.72;9.33;;;;;;;8.84;89.14;99218.56;1713592;82;21045;-64
2021/09/24 02:47:10;;;;;;;9.47;8.67;;;;;;;8.89;89.35;99215.27;1769681;79;23161;-64
2021/09/24 02:49:38;;;;;;;10.68;9.58;;;;;;;8.85;89.42;99210.07;1757043;80;21548;-64
2021/09/24 02:52:06;;;;;;;10.90;9.90;;;;;;;8.86;89.36;99202.42;1722279;80;21121;-64
2021/09/24 02:54:32;;;;;;;11.57;10.53;;;;;;;8.87;89.47;99204.03;1715857;80;21092;-65
2021/09/24 02:56:58;;;;;;;11.33;10.15;;;;;;;8.88;89.56;99201.18;1685289;81;21090;-61
2021/09/24 02:59:25;;;;;;;10.25;9.23;;;;;;;8.91;89.36;99198.13;1682868;82;21113;-59
2021/09/24 03:01:54;;;;;;;12.17;10.00;;;;;;;8.90;89.69;99189.83;1678368;83;21148;-59
2021/09/24 03:04:21;;;;;;;10.37;9.37;;;;;;;8.94;89.47;99192.89;1673809;83;21551;-60
2021/09/24 03:06:47;;;;;;;11.03;9.37;;;;;;;8.95;89.67;99190.56;1644162;85;21070;-59
2021/09/24 03:09:15;;;;;;;10.40;9.40;;;;;;;8.98;89.48;99181.34;1649570;85;21095;-60
2021/09/24 03:11:42;;;;;;;;;;;;;;;8.95;89.55;99183.39;1646880;85;21056;-60
2021/09/24 03:14:09;;;;;;;10.65;9.45;;;;;;;8.96;89.54;99185.02;1639887;85;20529;-60
2021/09/24 03:16:37;;;;;;;10.97;9.43;;;;;;;8.93;89.86;99184.11;1637997;85;21156;-59
2021/09/24 03:19:05;;;;;;;9.97;8.50;;;;;;;8.95;89.86;99179.41;1640943;86;21162;-59
2021/09/24 03:21:33;;;;;;;9.23;8.33;;;;;;;8.92;90.02;99164.38;1647138;85;21543;-59
2021/09/24 03:24:01;;;;;;;10.37;8.63;;;;;;;8.96;89.84;99161.09;1656610;85;21044;-59
2021/09/24 03:26:27;;;;;;;8.83;8.10;;;;;;;8.98;90.03;99158.23;1647114;85;21077;-59
2021/09/24 03:28:55;;;;;;;8.97;8.20;;;;;;;8.98;90.10;99152.92;1649530;85;22077;-61
2021/09/24 03:31:22;;;;;;;10.58;8.85;;;;;;;9.00;90.07;99139.43;1641245;85;21074;-59
2021/09/24 03:33:49;;;;;;;9.00;8.20;;;;;;;8.98;90.42;99133.51;1641767;85;21086;-59
2021/09/24 03:36:17;;;;;;;9.20;8.30;;;;;;;8.98;90.42;99125.02;1649466;85;21097;-59
2021/09/24 03:38:44;;;;;;;9.77;8.87;;;;;;;8.98;90.41;99117.04;1648638;86;21225;-59
2021/09/24 03:41:11;;;;;;;9.13;7.72;;;;;;;9.00;90.46;99124.29;1648219;85;21066;-58
2021/09/24 03:43:39;;;;;;;9.30;8.03;;;;;;;9.05;90.33;99109.06;1652478;85;21097;-58
2021/09/24 03:46:05;;;;;;;9.87;8.97;;;;;;;9.03;90.38;99112.45;1650645;84;21054;-58
2021/09/24 03:48:31;;;;;;;8.55;7.67;;;;;;;9.08;90.40;99105.97;1667872;84;21090;-59
2021/09/24 03:50:57;;;;;;;9.85;8.38;;;;;;;9.08;90.48;99102.82;1650834;85;21069;-60
2021/09/24 03:53:25;;;;;;;9.53;8.63;;;;;;;9.08;90.58;99090.86;1708378;82;21053;-60
2021/09/24 03:55:53;;;;;;;8.83;7.93;;;;;;;9.09;90.63;99093.80;1692125;82;21563;-59
2021/09/24 03:58:23;;;;;;;9.53;7.53;;;;;;;9.15;90.42;99086.34;1667169;83;21089;-58
2021/09/24 04:00:54;;;;;;;8.33;7.53;;;;;;;9.16;90.34;99067.22;1669172;83;21656;-58
2021/09/24 04:03:20;;;;;;;8.87;8.07;;;;;;;9.16;90.27;99070.68;1639876;85;21072;-60
2021/09/24 04:05:48;;;;;;;7.93;7.23;;;;;;;9.17;90.23;99066.17;1639772;87;21093;-60
2021/09/24 04:08:15;;;;;;;8.07;7.37;;;;;;;9.19;90.30;99063.31;1624276;87;21084;-59
2021/09/24 04:10:42;;;;;;;8.55;7.75;;;;;;;9.21;90.25;99043.97;1641226;85;21052;-59
2021/09/24 04:13:09;;;;;;;8.97;8.07;;;;;;;9.21;90.20;99037.33;1611354;84;20981;-59
2021/09/24 04:15:35;;;;;;;10.55;7.87;;;;;;;9.19;90.37;99040.19;1625226;86;21106;-60
2021/09/24 04:18:02;;;;;;;9.27;8.37;;;;;;;9.21;90.28;99038.66;1607116;87;21076;-60
2021/09/24 04:20:28;;;;;;;;;;;;;;;9.19;90.42;99035.39;1639207;86;21044;-60
2021/09/24 04:22:54;;;;;;;9.67;8.73;;;;;;;9.19;90.42;99024.76;1600960;86;20148;-59
2021/09/24 04:25:21;;;;;;;9.53;8.53;;;;;;;9.20;90.59;99026.41;1646309;86;21158;-60
2021/09/24 04:27:47;;;;;;;10.08;7.83;;;;;;;9.19;90.64;99016.27;1640398;85;21078;-60
2021/09/24 04:30:14;;;;;;;9.48;8.58;;;;;;;9.22;90.69;99009.20;1577018;89;21107;-60
2021/09/24 04:32:40;;;;;;;9.65;8.40;;;;;;;9.25;90.65;99008.79;1618987;86;21335;-60
2021/09/24 04:35:08;;;;;;;8.33;7.47;;;;;;;9.22;90.86;98995.10;1608961;87;21650;-60
2021/09/24 04:37:35;;;;;;;9.83;8.27;;;;;;;9.26;90.82;98988.33;1598779;88;21062;-59
2021/09/24 04:40:02;;;;;;;15.28;8.60;;;;;;;9.25;90.91;98982.20;1644083;86;22099;-61
2021/09/24 04:42:29;;;;;;;9.20;8.30;;;;;;;9.24;91.10;98977.09;1645270;86;21062;-63
2021/09/24 04:44:57;;;;;;;9.27;7.63;;;;;;;9.24;91.14;98975.77;1661862;82;21049;-60
2021/09/24 04:47:23;;;;;;;7.90;7.08;;;;;;;9.23;91.29;98969.64;1645204;86;21667;-60
2021/09/24 04:49:49;;;;;;;8.33;7.50;;;;;;;9.21;91.51;98962.88;1664062;86;21151;-56
2021/09/24 04:52:15;;;;;;;8.88;7.97;;;;;;;9.23;91.58;98960.82;1589186;89;21065;-61
2021/09/24 04:54:41;;;;;;;7.92;7.12;;;;;;;9.23;91.56;98962.16;1592058;88;21209;-61
2021/09/24 04:57:08;;;;;;;9.27;8.27;;;;;;;9.27;91.61;98956.73;1614173;88;21621;-60
2021/09/24 04:59:35;;;;;;;7.77;7.03;;;;;;;9.24;91.55;98938.54;1622316;87;21122;-61
2021/09/24 05:02:02;;;;;;;11.40;7.90;;;;;;;9.25;91.67;98942.32;1642873;85;21082;-62
2021/09/24 05:04:28;;;;;;;;;;;;;;;9.26;91.71;98947.11;1630012;86;21129;-61
2021/09/24 05:06:54;;;;;;;9.10;6.90;;;;;;;9.27;91.90;98941.59;1608657;87;20120;-61
2021/09/24 05:09:20;;;;;;;8.00;7.22;;;;;;;9.24;92.14;98926.58;1613366;87;21058;-61
2021/09/24 05:11:47;;;;;;;8.90;8.00;;;;;;;9.24;92.08;98926.58;1621462;85;21166;-62
2021/09/24 05:14:14;;;;;;;7.60;6.92;;;;;;;9.15;92.14;98905.58;1630452;86;21119;-63
2021/09/24 05:16:42;;;;;;;8.33;7.33;;;;;;;9.29;91.95;98906.81;1630134;85;21011;-61
2021/09/24 05:19:09;;;;;;;8.47;7.67;;;;;;;9.33;91.95;98902.17;1627568;85;21047;-62
2021/09/24 05:21:37;;;;;;;9.30;7.63;;;;;;;9.32;91.86;98882.44;1632307;85;21158;-62
2021/09/24 05:24:04;;;;;;;9.48;8.58;;;;;;;9.33;91.96;98880.89;1633232;83;21135;-61
2021/09/24 05:26:31;;;;;;;8.57;7.77;;;;;;;9.37;92.00;98871.17;1628204;85;21040;-60
2021/09/24 05:28:59;;;;;;;9.70;7.77;;;;;;;9.35;92.21;98866.06;1630039;85;21091;-61
2021/09/24 05:31:25;;;;;;;8.63;7.87;;;;;;;9.38;92.10;98864.31;1635941;85;21190;-61
2021/09/24 05:33:52;;;;;;;9.60;8.65;;;;;;;9.35;92.20;98848.25;1629322;84;21295;-61
2021/09/24 05:36:19;;;;;;;9.33;8.37;;;;;;;9.39;92.31;98855.28;1631227;85;21101;-62
2021/09/24 05:38:45;;;;;;;12.93;8.70;;;;;;;9.40;92.53;98849.44;1636081;85;21083;-61
2021/09/24 05:41:12;;;;;;;11.97;9.57;;;;;;;9.40;92.45;98842.79;1633035;85;21095;-63
2021/09/24 05:43:40;;;;;;;12.10;8.33;;;;;;;9.42;92.44;98840.23;1633957;85;21043;-63
2021/09/24 05:46:06;;;;;;;9.88;8.93;;;;;;;9.43;92.68;98818.44;1636009;85;21225;-64
2021/09/24 05:48:34;;;;;;;10.23;7.70;;;;;;;9.45;92.69;98825.67;1628408;85;21628;-63
2021/09/24 05:51:00;;;;;;;9.68;8.18;;;;;;;9.47;92.59;98823.08;1631349;85;21090;-62
2021/09/24 05:53:27;;;;;;;;;;;;;;;9.44;92.67;98838.17;1629885;85;21035;-67
2021/09/24 05:55:55;;;;;;;7.47;6.55;;;;;;;9.45;92.74;98846.95;1629458;85;20431;-64
2021/09/24 05:58:22;;;;;;;7.97;6.93;;;;;;;9.43;93.10;98833.87;1630178;85;21030;-61
2021/09/24 06:00:49;;;;;;;6.60;5.90;;;;;;;9.43;93.41;98832.53;1627798;85;21019;-61
2021/09/24 06:03:15;;;;;;;8.00;7.10;;;;;;;9.43;93.37;98821.90;1626492;85;21103;-62
2021/09/24 06:05:42;;;;;;;;;;;;;;;9.50;92.95;98814.68;1637832;85;21086;-63
2021/09/24 06:08:09;;;;;;;7.60;5.33;;;;;;;9.48;92.91;98810.63;1627928;85;20182;-63
2021/09/24 06:10:38;;;;;;;7.15;5.62;;;;;;;9.47;93.20;98813.77;1633130;85;21059;-62
2021/09/24 06:13:07;;;;;;;7.60;6.90;;;;;;;9.47;93.51;98795.16;1644246;85;21085;-63
2021/09/24 06:15:36;;;;;;;6.93;6.40;;;;;;;9.50;93.39;98785.42;1623037;86;21068;-63
2021/09/24 06:18:03;;;;;;;6.80;6.17;;;;;;;9.55;93.19;98796.75;1639875;85;21051;-64
2021/09/24 06:20:31;;;;;;;7.43;6.47;;;;;;;9.54;93.38;98783.14;1629770;85;21015;-63
2021/09/24 06:23:00;;;;;;;7.13;6.53;;;;;;;9.54;93.34;98779.15;1638239;85;21075;-62
2021/09/24 06:25:26;;;;;;;7.45;6.70;;;;;;;9.51;93.26;98772.44;1632502;85;21105;-62
2021/09/24 06:27:52;;;;;;;7.42;5.97;;;;;;;9.53;93.32;98770.37;1632957;85;21025;-62
2021/09/24 06:30:21;;;;;;;;;;;;;;;9.52;93.41;98770.05;1637470;85;20992;-63
2021/09/24 06:32:49;;;;;;;9.10;5.87;;;;;;;9.57;93.45;98781.87;1638567;85;20138;-62
2021/09/24 06:35:18;;;;;;;7.93;5.80;;;;;;;9.54;93.62;98772.50;1621169;85;21087;-62
2021/09/24 06:37:47;;;;;;;7.37;6.10;;;;;;;9.54;93.82;98765.33;1623009;85;21098;-61
2021/09/24 06:40:14;;;;;;;6.80;6.03;;;;;;;9.55;93.71;98760.31;1631947;85;21098;-61
2021/09/24 06:42:42;;;;;;;5.80;5.27;;;;;;;9.57;93.82;98759.27;1647287;85;21059;-62
2021/09/24 06:45:11;;;;;;;6.60;6.00;;;;;;;9.59;93.64;98751.38;1643617;85;21138;-61
2021/09/24 06:47:37;;;;;;;8.20;6.33;;;;;;;9.63;93.57;98763.73;1630784;85;21174;-61
2021/09/24 06:50:05;;;;;;;8.45;5.10;;;;;;;9.66;93.61;98755.29;1625593;85;21577;-62
2021/09/24 06:52:32;;;;;;;7.30;5.50;;;;;;;9.68;93.67;98755.38;1628510;85;21087;-63
2021/09/24 06:54:59;;;;;;;5.80;5.30;;;;;;;9.70;93.67;98753.31;1633081;85;21681;-61
2021/09/24 06:57:26;;;;;;;5.67;5.13;;;;;;;9.67;93.59;98752.41;1626580;85;21063;-62
2021/09/24 06:59:53;;;;;;;7.40;5.30;;;;;;;9.71;93.50;98748.27;1626860;86;21130;-62
2021/09/24 07:02:20;;;;;;;6.00;5.15;;;;;;;9.72;93.67;98745.92;1626787;85;21086;-62
2021/09/24 07:04:46;;;;;;;8.78;5.55;;;;;;;9.74;93.43;98743.04;1632163;85;21506;-61
2021/09/24 07:07:13;;;;;;;4.67;4.13;;;;;;;9.73;93.52;98739.55;1631672;85;21744;-60
2021/09/24 07:09:39;;;;;;;;;;;;;;;9.75;93.29;98741.98;1641071;85;21115;-60
2021/09/24 07:12:07;;;;;;;4.53;4.12;;;;;;;9.80;93.21;98739.48;1634616;85;20207;-59
2021/09/24 07:14:33;;;;;;;7.50;6.77;;;;;;;9.81;93.52;98738.43;1640156;86;21155;-60
2021/09/24 07:17:00;;;;;;;4.85;4.45;;;;;;;9.87;93.43;98730.91;1634358;86;21079;-59
2021/09/24 07:19:27;;;;;;;5.90;5.37;;;;;;;9.89;93.07;98735.48;1630712;86;21705;-60
2021/09/24 07:21:53;;;;;;;5.07;4.57;;;;;;;9.93;92.96;98728.68;1634850;86;21026;-58
2021/09/24 07:24:21;;;;;;;6.27;5.47;;;;;;;9.96;92.86;98722.09;1639444;85;21038;-59
2021/09/24 07:26:49;;;;;;;6.73;6.10;;;;;;;9.91;92.84;98715.31;1625104;87;21078;-58
2021/09/24 07:29:17;;;;;;;7.00;6.40;;;;;;;10.02;92.88;98736.34;1600429;87;21768;-58
2021/09/24 07:31:43;;;;;;;;;;;;;;;10.06;92.79;98740.22;1609194;87;21630;-57
2021/09/24 07:34:09;;;;;;;7.33;6.20;;;;;;;10.10;92.82;98734.20;1627970;85;20180;-58
2021/09/24 07:36:35;;;;;;;5.35;4.85;;;;;;;10.11;92.80;98719.03;1637410;86;21057;-58
2021/09/24 07:39:01;;;;;;;5.72;5.22;;;;;;;10.10;92.92;98720.09;1624557;86;21075;-59
2021/09/24 07:41:27;;;;;;;6.45;4.87;;;;;;;9.96;92.86;98688.02;1639611;86;21095;-58
2021/09/24 07:43:53;;;;;;;6.95;6.05;;;;;;;10.11;92.99;98720.37;1645686;86;21182;-58
2021/09/24 07:46:22;;;;;;;5.00;4.53;;;;;;;10.14;93.03;98723.92;1635093;85;21101;-59
2021/09/24 07:48:50;;;;;;;4.70;4.30;;;;;;;10.16;93.14;98715.19;1637187;86;21602;-58
2021/09/24 07:51:17;;;;;;;4.57;4.17;;;;;;;10.13;93.26;98719.13;1645902;86;21169;-58
2021/09/24 07:53:45;;;;;;;6.40;4.97;;;;;;;10.13;93.28;98712.97;1641455;86;21074;-59
2021/09/24 07:56:11;;;;;;;5.17;4.67;;;;;;;10.16;93.33;98726.36;1645367;86;21064;-58
2021/09/24 07:58:39;;;;;;;4.75;4.35;;;;;;;10.14;93.38;98728.72;1644036;86;21595;-61
2021/09/24 08:01:08;;;;;;;5.63;5.10;;;;;;;10.13;93.55;98701.81;1639335;86;21171;-59
2021/09/24 08:03:36;;;;;;;4.10;3.80;;;;;;;10.09;93.76;98699.29;1636254;86;21084;-59
2021/09/24 08:06:05;;;;;;;5.10;4.73;;;;;;;10.11;93.75;98718.54;1632930;86;21151;-59
2021/09/24 08:08:31;;;;;;;5.13;4.73;;;;;;;10.16;93.74;98719.18;1635713;86;21103;-59
2021/09/24 08:10:59;;;;;;;6.20;5.80;;;;;;;10.21;93.63;98721.99;1631610;86;21056;-60
2021/09/24 08:13:26;;;;;;;5.97;5.43;;;;;;;10.30;93.64;98724.66;1652551;85;21115;-59
2021/09/24 08:15:56;;;;;;;6.33;5.72;;;;;;;10.38;93.65;98725.36;1644128;85;21052;-59
2021/09/24 08:18:23;;;;;;;6.33;5.87;;;;;;;10.47;93.48;98723.51;1649270;85;21164;-60
2021/09/24 08:20:52;;;;;;;5.87;5.37;;;;;;;10.53;93.33;98721.78;1649749;85;21087;-60
2021/09/24 08:23:19;;;;;;;8.23;7.53;;;;;;;10.62;93.26;98712.40;1661295;85;21064;-60
2021/09/24 08:25:48;;;;;;;8.30;7.47;;;;;;;10.69;93.08;98714.45;1653624;84;21149;-60
2021/09/24 08:28:15;;;;;;;8.48;7.75;;;;;;;10.77;93.02;98715.97;1657029;85;21212;-59
2021/09/24 08:30:41;;;;;;;8.33;7.53;;;;;;;10.85;92.91;98715.65;1650623;85;21111;-60
2021/09/24 08:33:08;;;;;;;6.10;5.60;;;;;;;10.95;92.69;98727.08;1652703;85;21124;-58
2021/09/24 08:35:37;;;;;;;7.08;6.47;;;;;;;11.03;92.19;98716.59;1657588;85;21614;-59
2021/09/24 08:38:04;;;;;;;10.43;6.67;;;;;;;11.09;91.86;98709.83;1655546;85;21128;-59
2021/09/24 08:40:33;;;;;;;5.50;5.10;;;;;;;11.17;91.25;98720.66;1653503;85;21146;-59
2021/09/24 08:43:00;;;;;;;7.03;5.40;;;;;;;11.23;90.67;98726.40;1641646;85;21028;-60
2021/09/24 08:45:32;;;;;;;6.67;6.17;;;;;;;11.30;90.55;98714.26;1645754;84;21187;-60
2021/09/24 08:48:06;;;;;;;7.15;6.55;;;;;;;11.38;90.87;98715.79;1645694;85;21139;-60
2021/09/24 08:50:37;;;;;;;6.30;5.72;;;;;;;11.46;90.60;98723.43;1647866;85;21895;-60
2021/09/24 08:53:07;;;;;;;5.92;5.37;;;;;;;11.55;89.67;98724.70;1647818;85;21203;-59
2021/09/24 08:55:39;;;;;;;5.85;5.40;;;;;;;11.67;89.76;98725.48;1640822;85;21161;-61
2021/09/24 08:58:06;;;;;;;6.85;5.62;;;;;;;11.78;89.51;98715.83;1657637;85;21100;-60
2021/09/24 09:00:34;;;;;;;5.28;4.97;;;;;;;11.88;89.24;98713.39;1649331;85;21077;-59
2021/09/24 09:03:10;;;;;;;6.58;4.65;;;;;;;11.98;89.08;98705.30;1642816;86;21061;-61
2021/09/24 09:05:45;;;;;;;5.33;4.83;;;;;;;12.06;88.59;98699.06;1621230;87;21635;-60
2021/09/24 09:08:23;;;;;;;6.65;4.95;;;;;;;12.13;88.08;98697.59;1643102;86;21110;-60
2021/09/24 09:11:00;;;;;;;4.97;4.58;;;;;;;12.23;87.38;98701.78;1644816;86;21291;-61
2021/09/24 09:13:34;;;;;;;7.62;5.30;;;;;;;12.33;87.40;98694.47;1639449;86;21160;-63
2021/09/24 09:16:17;;;;;;;5.62;5.20;;;;;;;12.42;87.12;98697.58;1638996;86;21588;-61
2021/09/24 09:18:48;;;;;;;5.40;4.90;;;;;;;12.50;86.02;98695.03;1635244;86;21061;-62
2021/09/24 09:21:20;;;;;;;4.72;4.30;;;;;;;12.61;86.58;98692.28;1641598;86;21045;-62
2021/09/24 09:23:52;;;;;;;5.53;4.97;;;;;;;12.76;86.43;98694.41;1634325;86;21107;-61
2021/09/24 09:26:17;;;;;;;5.58;4.50;;;;;;;12.93;85.31;98695.74;1638036;86;21057;-60
2021/09/24 09:28:59;;;;;;;4.83;3.67;;;;;;;13.10;83.86;98689.05;1641800;86;21057;-60
2021/09/24 09:31:32;;;;;;;3.65;3.20;;;;;;;13.23;83.07;98689.23;1624471;86;21121;-61
2021/09/24 09:34:04;;;;;;;4.60;4.30;;;;;;;13.33;81.92;98688.59;1634704;86;21069;-61
2021/09/24 09:36:37;;;;;;;3.12;2.72;;;;;;;13.44;81.72;98678.31;1640436;86;21050;-61
2021/09/24 09:39:12;;;;;;;4.75;3.98;;;;;;;13.51;79.12;98675.47;1636800;86;21105;-60
2021/09/24 09:41:52;;;;;;;3.62;2.90;;;;;;;13.58;79.47;98681.42;1648250;86;21186;-63
2021/09/24 09:44:31;;;;;;;3.37;2.52;;;;;;;13.70;79.32;98671.95;1653493;86;21069;-61
2021/09/24 09:46:58;;;;;;;3.60;2.72;;;;;;;13.74;75.75;98682.44;1631552;86;21040;-61
2021/09/24 09:49:27;;;;;;;3.30;2.90;;;;;;;13.75;77.02;98680.85;1638670;86;21041;-62
2021/09/24 09:52:11;;;;;;;2.85;2.65;;;;;;;13.79;76.32;98683.84;1641529;86;21117;-58
2021/09/24 09:54:38;;;;;;;3.15;2.83;;;;;;;13.81;76.96;98675.03;1642089;86;21669;-61
2021/09/24 09:57:22;;;;;;;5.92;2.90;;;;;;;13.82;77.11;98700.73;1640114;86;21153;-62
2021/09/24 09:59:51;;;;;;;2.72;2.42;;;;;;;13.81;76.53;98697.25;1628907;86;21152;-60
2021/09/24 10:02:31;;;;;;;2.17;2.08;;;;;;;13.77;77.18;98689.98;1637954;86;21038;-62
2021/09/24 10:05:01;;;;;;;2.70;2.50;;;;;;;13.76;77.59;98693.16;1627176;86;21244;-59
2021/09/24 10:07:37;;;;;;;3.17;2.25;;;;;;;13.82;78.18;98690.85;1626519;86;21667;-60
2021/09/24 10:10:14;;;;;;;3.98;2.87;;;;;;;13.93;78.75;98686.94;1635834;86;21057;-59
2021/09/24 10:12:43;;;;;;;2.47;2.27;;;;;;;14.06;76.72;98675.83;1651566;86;20995;-59
2021/09/24 10:15:14;;;;;;;1.62;1.50;;;;;;;14.20;75.35;98674.39;1627707;85;21093;-59
2021/09/24 10:17:43;;;;;;;4.87;1.52;;;;;;;14.29;71.11;98673.92;1624232;86;21127;-60
2021/09/24 10:20:12;;;;;;;3.17;1.07;;;;;;;14.36;71.96;98667.83;1636138;86;21009;-60
2021/09/24 10:22:39;;;;;;;4.33;0.68;;;;;;;14.42;72.36;98676.19;1631660;86;21016;-58
2021/09/24 10:25:06;;;;;;;;;;;;;;;14.47;71.24;98672.22;1640180;86;21128;-62
2021/09/24 10:27:36;;;;;;;1.35;1.07;;;;;;;14.52;71.72;98676.80;1634640;86;20526;-60
2021/09/24 10:30:10;;;;;;;1.47;0.70;;;;;;;14.50;72.06;98669.02;1631504;86;21690;-62
2021/09/24 10:32:41;;;;;;;1.57;0.53;;;;;;;14.54;70.51;98680.87;1640239;86;21845;-59
2021/09/24 10:35:11;;;;;;;2.10;0.60;;;;;;;14.21;70.39;98626.95;1623515;86;21077;-60
2021/09/24 10:37:45;;;;;;;2.42;0.50;;;;;;;14.58;68.59;98695.41;1633878;86;21136;-59
2021/09/24 10:40:26;;;;;;;2.67;1.12;;;;;;;14.53;69.84;98696.66;1638040;86;21191;-60
2021/09/24 10:43:01;;;;;;;3.25;1.40;;;;;;;14.52;66.60;98692.38;1635692;86;21669;-60
2021/09/24 10:45:42;;;;;;;1.50;0.82;;;;;;;14.50;66.92;98689.12;1643350;85;21135;-59
2021/09/24 10:48:26;;;;;;;1.35;0.40;;;;;;;14.50;64.43;98691.80;1644440;85;21120;-59
2021/09/24 10:51:07;;;;;;;3.00;0.20;;;;;;;14.52;63.85;98699.08;1655900;85;21013;-59
2021/09/24 10:53:46;;;;;;;3.05;0.90;;;;;;;14.57;64.15;98705.05;1655468;85;21176;-60
2021/09/24 10:56:18;;;;;;;1.12;0.65;;;;;;;14.64;64.25;98710.21;1653387;85;21856;-61
2021/09/24 10:58:44;;;;;;;1.25;0.30;;;;;;;13.70;63.15;98566.19;1656072;85;21684;-60
2021/09/24 11:01:30;;;;;;;1.05;0.30;;;;;;;14.67;60.65;98701.09;1649936;85;21052;-60
2021/09/24 11:04:10;;;;;;;2.75;0.20;;;;;;;14.67;60.65;98701.09;1656554;85;21069;-63
2021/09/24 11:06:51;;;;;;;1.17;0.20;;;;;;;14.58;59.27;98706.67;1641865;85;21057;-59
2021/09/24 11:09:21;;;;;;;0.98;0.20;;;;;;;14.55;61.45;98709.28;1638693;85;21526;-59
2021/09/24 11:12:01;;;;;;;1.30;0.17;;;;;;;14.65;62.31;98719.86;1643131;85;21048;-59
2021/09/24 11:14:37;;;;;;;0.70;0.10;;;;;;;14.78;62.64;98716.75;1647923;85;21080;-61
2021/09/24 11:17:09;;;;;;;3.12;0.37;;;;;;;14.88;60.00;98712.83;1668503;85;21083;-62
2021/09/24 11:19:49;;;;;;;5.00;0.23;;;;;;;14.94;60.89;98708.31;1651291;85;21599;-61
2021/09/24 11:22:23;;;;;;;1.27;0.35;;;;;;;14.97;60.66;98699.22;1652529;85;21102;-62
2021/09/24 11:25:04;;;;;;;1.70;0.68;;;;;;;15.05;61.03;98703.30;1664713;85;21562;-60
2021/09/24 11:27:35;;;;;;;3.15;0.30;;;;;;;15.12;60.33;98695.01;1664220;85;21021;-60
2021/09/24 11:30:07;;;;;;;2.98;0.20;;;;;;;15.11;61.30;98704.14;1648544;85;21100;-59
2021/09/24 11:32:41;;;;;;;5.85;0.53;;;;;;;15.04;61.18;98705.69;1652081;85;21088;-60
2021/09/24 11:35:13;;;;;;;7.95;0.45;;;;;;;14.96;61.64;98715.03;1646355;85;21563;-64
2021/09/24 11:37:46;;;;;;;2.40;0.30;;;;;;;14.78;61.66;98706.02;1638984;85;21602;-58
2021/09/24 11:40:21;;;;;;;1.20;0.25;;;;;;;14.58;62.90;98714.17;1651374;85;21507;-59
2021/09/24 11:42:55;;;;;;;2.72;0.62;;;;;;;14.45;63.81;98716.41;1645086;85;21547;-59
2021/09/24 11:45:25;;;;;;;1.75;0.30;;;;;;;14.45;63.59;98710.54;1650262;85;21433;-60
2021/09/24 11:48:10;;;;;;;1.62;0.30;;;;;;;14.43;62.55;98711.84;1639526;85;21121;-59
2021/09/24 11:50:38;;;;;;;2.70;0.53;;;;;;;14.32;63.70;98716.30;1641649;85;21041;-59